Adelphi, OH

8:22 AM EDT on July 28, 2014 (GMT -0400)
Rock House State Park area (KOHLAURE2) Elev 1086 ft | 39.48 °N, 82.66 °W | Change Station

Current weather conditions updated 5 seconds ago

Overcast
Overcast
60.9 °F
Feels Like 60.9 °F
N
2.1
Wind Variable Wind from West
Gusts 4.0 mph

Today is forecast to be Much Cooler than yesterday.

Today
High -- | Low -- °F
--% Chance of Precip.
Yesterday
High -- | Low -- °F
Precip. -- in
6:27 AM 8:47 PM
New Moon, 2% visible
Pressure 29.81 in
Visibility 10.0 miles
Clouds Overcast 1800 ft
Dew Point 59 °F
Humidity 92%
Rainfall 0.00 in
Snow Depth Not available.
UV 0 out of 12
Pollen 6.20 out of 12
Air Quality Not available.
Flu Activity Not available.
METAR KLHQ 281153Z AUTO 31008KT 10SM OVC018 17/14 A2982 RMK AO2 SLP093 70007 T01720144 10189 20167 51017

More Conditions Fewer Conditions

Pressure 29.81 in
Visibility 10.0 miles
Clouds Overcast 1800 ft
Dew Point 59 °F
Humidity 92%
Rainfall 0.00 in
Snow Depth Not available.
UV 0 out of 12
Pollen 6.20 out of 12
Air Quality Not available.
Flu Activity Not available.
METAR KLHQ 281153Z AUTO 31008KT 10SM OVC018 17/14 A2982 RMK AO2 SLP093 70007 T01720144 10189 20167 51017

More Conditions Fewer Conditions

10-Day Weather Forecast

Almanac

Astronomy

Jul. 28, 2014 Rise Set
Actual Time 6:27 AM EDT 8:47 PM EDT
Civil Twilight 5:56 AM EDT 9:17 PM EDT
Nautical Twilight 5:19 AM EDT 9:55 PM EDT
Astronomical Twilight 4:37 AM EDT 10:36 PM EDT
Moon 8:06 AM EDT 9:29 PM EDT
Length of Visible Light 15h 20m
Length of Day
14h 20m
Tomorrow will be 1m 50s shorter.
New Moon, 2% of the Moon is Illuminated
Today
New Moon
Aug 3
First Quarter
Aug 10
Full
Aug 17
Last Quarter
Aug 25
New

Today's Extremes

State Highs State Lows

Community

WunderPhotos

Upload Photos

1,738,311 photos uploaded!

Nearby

Snow Depth

Station Depth Elevation
No new snow has been reported.

Earthquake Activity

City Distance Mag. Time & Date
No recent earthquake activity has been reported nearby.
Minimum magnitude displayed is 2.5.

Coastal Water Temperatures

Place Temperature
No Stations Reporting

Nearby Weather Stations

Station Location Temp. Dew Point Humidity Wind Precip. Elev Updated Type
Rock House State Park area, Laurelville, OH 60.9 °F 59 °F 92% West  at  2.1 mph 0.00 in / hr 1086 ft 8:22 AM EDT Rapid Fire
Chillicothe, OH 61.9 °F 61 °F 98% NNW  at  2.3 mph 0.00 in / hr 776 ft 8:22 AM EDT Rapid Fire
RAWS CHILLICOTHE OH, Chillicothe, OH 63 °F 59 °F 86% NW  at  8 mph 0.00 in / hr 629 ft 7:24 AM EDT MADIS
Pickaway-Fairfield Line, Ashville, OH 62.1 °F 59 °F 89% NNW  at  1.7 mph - / hr 815 ft 8:10 AM EDT Normal
Fairfield County Weather, Lancaster, OH 63.1 °F 58 °F 85% North  at  0.0 mph 0.00 in / hr 958 ft 8:22 AM EDT Rapid Fire
Northern Lancaster Area, Lancaster, OH 63.5 °F 63 °F 97% West  at  4.0 mph 0.00 in / hr 994 ft 8:22 AM EDT Rapid Fire
RAWS ZALESKI OH, Zaleski, OH 63 °F 60 °F 91% West  at  4 mph 0.00 in / hr 729 ft 7:24 AM EDT MADIS

Show More Stations Show Fewer Stations